createdAt,value
2019-01-29T00:01:16.235Z,2.10
2019-01-29T00:03:42.983Z,2.17
2019-01-29T00:06:09.581Z,2.13
2019-01-29T00:08:36.131Z,1.93
2019-01-29T00:11:03.250Z,1.90
2019-01-29T00:13:29.862Z,1.70
2019-01-29T00:15:56.445Z,2.03
2019-01-29T00:18:22.951Z,1.90
2019-01-29T00:20:49.464Z,1.83
2019-01-29T00:23:15.940Z,2.00
2019-01-29T00:25:42.585Z,2.17
2019-01-29T00:28:09.318Z,1.87
2019-01-29T00:30:35.827Z,1.93
2019-01-29T00:33:02.432Z,1.73
2019-01-29T00:35:28.986Z,1.43
2019-01-29T00:37:55.624Z,1.43
2019-01-29T00:40:22.614Z,1.87
2019-01-29T00:42:49.205Z,1.50
2019-01-29T00:45:16.402Z,1.67
2019-01-29T00:47:42.980Z,1.50
2019-01-29T00:50:09.922Z,1.50
2019-01-29T00:52:41.800Z,1.40
2019-01-29T00:55:06.688Z,1.50
2019-01-29T00:57:33.285Z,1.53
2019-01-29T00:59:59.813Z,1.40
2019-01-29T01:02:26.284Z,1.43
2019-01-29T01:04:53.134Z,1.43
2019-01-29T01:07:19.726Z,1.63
2019-01-29T01:09:46.514Z,1.40
2019-01-29T01:12:13.061Z,1.30
2019-01-29T01:14:39.603Z,1.30
2019-01-29T01:17:06.168Z,2.63
2019-01-29T01:19:32.709Z,1.27
2019-01-29T01:21:59.716Z,1.30
2019-01-29T01:24:26.231Z,1.53
2019-01-29T01:26:52.849Z,1.20
2019-01-29T01:29:20.675Z,1.37
2019-01-29T01:31:47.486Z,1.47
2019-01-29T01:34:13.953Z,1.20
2019-01-29T01:36:40.443Z,1.07
2019-01-29T01:39:07.744Z,1.13
2019-01-29T01:41:34.388Z,1.90
2019-01-29T01:44:00.859Z,1.50
2019-01-29T01:46:27.730Z,1.30
2019-01-29T01:48:54.623Z,1.60
2019-01-29T01:51:21.142Z,1.87
2019-01-29T01:53:47.666Z,1.60
2019-01-29T01:56:14.122Z,1.70
2019-01-29T01:58:40.641Z,1.97
2019-01-29T02:01:07.195Z,1.97
2019-01-29T02:03:33.685Z,1.60
2019-01-29T02:06:00.778Z,2.43
2019-01-29T02:08:27.650Z,2.17
2019-01-29T02:10:54.443Z,1.80
2019-01-29T02:13:20.920Z,2.40
2019-01-29T02:15:47.466Z,2.40
2019-01-29T02:18:14.021Z,2.03
2019-01-29T02:20:40.527Z,1.60
2019-01-29T02:23:07.974Z,2.33
2019-01-29T02:25:35.001Z,3.10
2019-01-29T02:28:01.597Z,1.73
2019-01-29T02:30:28.153Z,2.00
2019-01-29T02:32:54.809Z,2.23
2019-01-29T02:35:21.385Z,2.40
2019-01-29T02:37:48.901Z,2.30
2019-01-29T02:40:18.447Z,2.20
2019-01-29T02:42:44.980Z,1.80
2019-01-29T02:45:12.677Z,1.83
2019-01-29T02:47:39.226Z,2.43
2019-01-29T02:50:06.882Z,2.30
2019-01-29T02:52:33.417Z,2.10
2019-01-29T02:55:00.416Z,2.30
2019-01-29T02:57:26.957Z,2.13
2019-01-29T02:59:53.468Z,2.13
2019-01-29T03:02:20.351Z,2.17
2019-01-29T03:04:46.829Z,1.83
2019-01-29T03:07:13.494Z,1.90
2019-01-29T03:09:40.092Z,2.20
2019-01-29T03:12:06.876Z,2.73
2019-01-29T03:14:33.700Z,1.97
2019-01-29T03:17:00.183Z,2.03
2019-01-29T03:19:26.712Z,2.20
2019-01-29T03:21:53.611Z,2.57
2019-01-29T03:24:20.095Z,2.37
2019-01-29T03:26:46.710Z,3.73
2019-01-29T03:29:13.314Z,2.63
2019-01-29T03:31:39.791Z,2.00
2019-01-29T03:34:06.441Z,2.50
2019-01-29T03:36:33.068Z,3.03
2019-01-29T03:38:59.912Z,3.07
2019-01-29T03:41:26.563Z,2.20
2019-01-29T03:43:53.184Z,2.77
2019-01-29T03:46:19.706Z,2.30
2019-01-29T03:48:46.484Z,2.30
2019-01-29T03:51:13.132Z,2.57
2019-01-29T03:53:39.635Z,2.30
2019-01-29T03:56:06.213Z,2.33
2019-01-29T03:58:32.712Z,3.00
2019-01-29T04:00:59.243Z,2.77
2019-01-29T04:03:25.721Z,2.70
2019-01-29T04:05:52.285Z,3.43
2019-01-29T04:08:18.873Z,2.40
2019-01-29T04:10:45.386Z,2.57
2019-01-29T04:13:11.853Z,2.53
2019-01-29T04:15:39.404Z,4.40
2019-01-29T04:18:05.967Z,2.43
2019-01-29T04:20:32.471Z,2.47
2019-01-29T04:22:58.957Z,2.43
2019-01-29T04:25:25.506Z,2.10
2019-01-29T04:27:52.434Z,2.60
2019-01-29T04:30:20.129Z,2.50
2019-01-29T04:32:46.631Z,2.97
2019-01-29T04:35:13.837Z,2.57
2019-01-29T04:37:40.637Z,2.30
2019-01-29T04:40:09.247Z,2.10
2019-01-29T04:42:35.707Z,2.17
2019-01-29T04:45:02.882Z,2.43
2019-01-29T04:47:29.399Z,2.23
2019-01-29T04:49:55.967Z,2.70
2019-01-29T04:52:26.522Z,2.20
2019-01-29T04:54:53.068Z,2.20
2019-01-29T04:57:19.560Z,2.30
2019-01-29T04:59:46.072Z,2.73
2019-01-29T05:02:12.520Z,2.47
2019-01-29T05:04:39.356Z,2.87
2019-01-29T05:07:05.830Z,3.37
2019-01-29T05:09:32.325Z,2.10
2019-01-29T05:11:58.781Z,2.00
2019-01-29T05:14:25.235Z,2.27
2019-01-29T05:16:51.707Z,2.23
2019-01-29T05:19:18.303Z,3.17
2019-01-29T05:21:44.794Z,4.73
2019-01-29T05:24:11.273Z,3.30
2019-01-29T05:26:37.732Z,4.20
2019-01-29T05:29:04.175Z,3.13
2019-01-29T05:31:30.705Z,2.20
2019-01-29T05:33:57.295Z,2.30
2019-01-29T05:36:23.870Z,2.50
2019-01-29T05:38:50.718Z,2.87
2019-01-29T05:41:17.276Z,2.50
2019-01-29T05:43:43.777Z,3.20
2019-01-29T05:46:10.309Z,3.57
2019-01-29T05:48:36.784Z,2.67
2019-01-29T05:51:03.368Z,2.50
2019-01-29T05:53:29.852Z,2.57
2019-01-29T05:55:56.337Z,2.93
2019-01-29T05:58:22.798Z,2.40
2019-01-29T06:00:49.333Z,2.97
2019-01-29T06:03:15.836Z,2.57
2019-01-29T06:05:42.316Z,2.43
2019-01-29T06:08:08.801Z,3.00
2019-01-29T06:10:35.287Z,2.97
2019-01-29T06:13:01.842Z,3.07
2019-01-29T06:15:28.432Z,2.83
2019-01-29T06:17:54.945Z,3.67
2019-01-29T06:20:22.821Z,3.73
2019-01-29T06:22:49.498Z,3.23
2019-01-29T06:25:16.388Z,3.10
2019-01-29T06:27:43.092Z,3.60
2019-01-29T06:30:10.716Z,3.30
2019-01-29T06:32:37.218Z,3.50
2019-01-29T06:35:04.579Z,3.10
2019-01-29T06:37:35.119Z,3.47
2019-01-29T06:40:01.795Z,3.23
2019-01-29T06:42:28.513Z,3.40
2019-01-29T06:44:55.036Z,3.23
2019-01-29T06:47:21.867Z,3.53
2019-01-29T06:49:48.357Z,2.70
2019-01-29T06:52:14.868Z,3.13
2019-01-29T06:54:41.423Z,3.13
2019-01-29T06:57:08.025Z,3.50
2019-01-29T06:59:34.468Z,3.20
2019-01-29T07:02:01.307Z,3.50
2019-01-29T07:04:27.828Z,3.53
2019-01-29T07:06:54.437Z,3.40
2019-01-29T07:09:20.891Z,3.60
2019-01-29T07:11:59.145Z,2.97
2019-01-29T07:14:25.828Z,3.07
2019-01-29T07:17:05.333Z,3.33
2019-01-29T07:19:38.006Z,5.40
2019-01-29T07:22:04.683Z,3.30
2019-01-29T07:24:31.195Z,3.33
2019-01-29T07:26:57.659Z,3.10
2019-01-29T07:29:25.209Z,3.03
2019-01-29T07:31:52.886Z,2.87
2019-01-29T07:34:19.365Z,2.97
2019-01-29T07:36:45.850Z,4.07
2019-01-29T07:39:12.492Z,3.60
2019-01-29T07:41:38.987Z,3.43
2019-01-29T07:44:05.889Z,3.47
2019-01-29T07:46:32.635Z,3.23
2019-01-29T07:48:59.216Z,3.50
2019-01-29T07:51:25.814Z,3.47
2019-01-29T07:53:52.418Z,3.20
2019-01-29T07:56:19.045Z,3.70
2019-01-29T07:58:45.790Z,2.80
2019-01-29T08:01:12.456Z,3.10
2019-01-29T08:03:38.946Z,3.30
2019-01-29T08:06:05.456Z,3.17
2019-01-29T08:08:31.952Z,2.70
2019-01-29T08:10:58.523Z,3.73
2019-01-29T08:13:25.101Z,4.50
2019-01-29T08:15:53.810Z,5.07
2019-01-29T08:18:20.714Z,3.63
2019-01-29T08:20:47.358Z,3.70
2019-01-29T08:23:13.873Z,3.07
2019-01-29T08:25:47.683Z,3.10
2019-01-29T08:28:08.845Z,2.83
2019-01-29T08:30:35.541Z,2.50
2019-01-29T08:33:02.068Z,2.50
2019-01-29T08:35:28.656Z,3.43
2019-01-29T08:37:55.221Z,3.30
2019-01-29T08:40:23.183Z,3.00
2019-01-29T08:42:49.715Z,3.13
2019-01-29T08:45:16.328Z,3.23
2019-01-29T08:47:43.279Z,3.33
2019-01-29T08:50:13.057Z,5.03
2019-01-29T08:52:39.620Z,3.17
2019-01-29T08:55:10.713Z,3.07
2019-01-29T08:57:35.159Z,3.23
2019-01-29T09:00:03.784Z,3.33
2019-01-29T09:02:30.304Z,2.70
2019-01-29T09:04:56.952Z,3.27
2019-01-29T09:07:23.499Z,3.67
2019-01-29T09:09:50.180Z,2.90
2019-01-29T09:12:16.773Z,3.10
2019-01-29T09:14:43.291Z,3.23
2019-01-29T09:17:09.800Z,3.03
2019-01-29T09:19:36.354Z,3.77
2019-01-29T09:22:02.961Z,3.27
2019-01-29T09:24:29.554Z,3.20
2019-01-29T09:26:56.383Z,2.80
2019-01-29T09:29:22.855Z,3.43
2019-01-29T09:31:49.395Z,3.33
2019-01-29T09:34:16.948Z,3.57
2019-01-29T09:36:43.492Z,3.00
2019-01-29T09:39:10.345Z,3.63
2019-01-29T09:41:37.013Z,3.03
2019-01-29T09:44:03.701Z,3.67
2019-01-29T09:46:30.413Z,3.20
2019-01-29T09:48:57.698Z,4.23
2019-01-29T09:51:24.236Z,3.87
2019-01-29T09:53:51.025Z,3.37
2019-01-29T09:56:17.755Z,3.57
2019-01-29T09:58:44.319Z,4.57
2019-01-29T10:01:10.870Z,3.07
2019-01-29T10:03:41.903Z,3.54
2019-01-29T10:06:09.592Z,3.30
2019-01-29T10:08:36.335Z,4.30
2019-01-29T10:11:02.908Z,4.10
2019-01-29T10:13:29.770Z,4.00
2019-01-29T10:15:56.459Z,2.80
2019-01-29T10:18:22.990Z,3.93
2019-01-29T10:20:49.565Z,3.17
2019-01-29T10:23:17.444Z,3.70
2019-01-29T10:25:44.023Z,3.50
2019-01-29T10:28:10.619Z,3.60
2019-01-29T10:30:37.317Z,3.60
2019-01-29T10:33:03.777Z,3.20
2019-01-29T10:35:30.442Z,4.50
2019-01-29T10:37:57.049Z,3.37
2019-01-29T10:40:24.302Z,3.97
2019-01-29T10:42:51.397Z,4.13
2019-01-29T10:45:18.643Z,3.73
2019-01-29T10:47:45.192Z,3.30
2019-01-29T10:50:15.802Z,3.97
2019-01-29T10:52:42.900Z,3.23
2019-01-29T10:55:09.593Z,3.30
2019-01-29T10:57:37.134Z,3.93
2019-01-29T11:00:15.054Z,3.30
2019-01-29T11:02:49.829Z,2.97
2019-01-29T11:05:24.615Z,3.00
2019-01-29T11:07:51.591Z,3.40
2019-01-29T11:10:18.761Z,3.63
2019-01-29T11:12:45.358Z,3.73
2019-01-29T11:15:15.039Z,3.50
2019-01-29T11:17:41.552Z,3.77
2019-01-29T11:20:10.845Z,4.70
2019-01-29T11:22:37.581Z,4.53
2019-01-29T11:25:06.942Z,4.77
2019-01-29T11:27:33.608Z,3.87
2019-01-29T11:30:00.266Z,4.10
2019-01-29T11:32:27.056Z,5.00
2019-01-29T11:34:53.545Z,4.27
2019-01-29T11:37:20.358Z,4.17
2019-01-29T11:39:46.803Z,4.83
2019-01-29T11:42:13.530Z,3.90
2019-01-29T11:44:40.286Z,3.47
2019-01-29T11:47:07.121Z,2.50
2019-01-29T11:49:33.619Z,3.10
2019-01-29T11:52:00.241Z,3.97
2019-01-29T11:54:26.764Z,3.30
2019-01-29T11:56:53.735Z,2.80
2019-01-29T11:59:20.214Z,3.57
2019-01-29T12:01:46.656Z,3.63
2019-01-29T12:04:13.272Z,3.20
2019-01-29T12:06:40.163Z,4.27
2019-01-29T12:09:12.686Z,4.17
2019-01-29T12:11:39.674Z,3.20
2019-01-29T12:14:06.511Z,3.13
2019-01-29T12:16:34.235Z,2.67
2019-01-29T12:19:00.839Z,3.13
2019-01-29T12:21:27.606Z,2.87
2019-01-29T12:23:56.128Z,3.40
2019-01-29T12:26:23.368Z,2.67
2019-01-29T12:28:49.875Z,2.93
2019-01-29T12:31:16.473Z,3.03
2019-01-29T12:33:42.990Z,3.00
2019-01-29T12:36:09.517Z,2.70
2019-01-29T12:38:36.145Z,3.00
2019-01-29T12:41:04.056Z,2.80
2019-01-29T12:43:30.698Z,3.00
2019-01-29T12:45:57.252Z,3.03
2019-01-29T12:48:24.000Z,2.50
2019-01-29T12:50:57.477Z,2.83
2019-01-29T12:53:29.236Z,3.10
2019-01-29T12:55:55.774Z,2.83
2019-01-29T12:58:22.289Z,2.25
2019-01-29T13:00:56.746Z,2.90
2019-01-29T13:03:23.352Z,2.80
2019-01-29T13:05:50.402Z,3.17
2019-01-29T13:08:17.295Z,3.17
2019-01-29T13:10:43.766Z,3.23
2019-01-29T13:13:13.868Z,3.50
2019-01-29T13:15:40.469Z,3.60
2019-01-29T13:18:08.161Z,3.80
2019-01-29T13:20:34.811Z,4.13
2019-01-29T13:23:01.541Z,4.23
2019-01-29T13:25:28.031Z,4.20
2019-01-29T13:27:54.726Z,3.70
2019-01-29T13:30:32.287Z,3.30
2019-01-29T13:33:06.452Z,4.10
2019-01-29T13:35:47.517Z,4.40
2019-01-29T13:38:22.500Z,3.57
2019-01-29T13:40:49.149Z,3.10
2019-01-29T13:43:15.856Z,3.27
2019-01-29T13:45:42.583Z,3.93
2019-01-29T13:48:09.161Z,3.73
2019-01-29T13:51:10.117Z,3.23
2019-01-29T13:53:37.183Z,3.70
2019-01-29T13:56:03.914Z,3.70
2019-01-29T13:58:30.880Z,2.90
2019-01-29T14:00:57.527Z,2.50
2019-01-29T14:03:24.268Z,2.90
2019-01-29T14:05:52.872Z,2.77
2019-01-29T14:08:19.405Z,2.70
2019-01-29T14:10:46.162Z,3.00
2019-01-29T14:13:15.611Z,3.20
2019-01-29T14:15:55.890Z,3.27
2019-01-29T14:18:24.746Z,3.70
2019-01-29T14:20:51.644Z,4.93
2019-01-29T14:23:18.283Z,3.63
2019-01-29T14:25:45.988Z,3.23
2019-01-29T14:28:22.623Z,3.73
2019-01-29T14:30:49.375Z,4.03
2019-01-29T14:33:16.622Z,4.50
2019-01-29T14:35:43.186Z,3.73
2019-01-29T14:38:55.019Z,3.93
2019-01-29T14:41:21.978Z,4.70
2019-01-29T14:43:54.438Z,4.63
2019-01-29T14:46:21.621Z,4.13
2019-01-29T14:48:48.842Z,4.47
2019-01-29T14:51:16.855Z,4.23
2019-01-29T14:53:43.348Z,4.80
2019-01-29T14:56:16.192Z,3.73
2019-01-29T14:58:51.896Z,5.13
2019-01-29T15:01:27.929Z,4.33
2019-01-29T15:04:02.771Z,4.37
2019-01-29T15:06:35.732Z,4.20
2019-01-29T15:09:08.197Z,5.20
2019-01-29T15:11:42.339Z,4.70
2019-01-29T15:14:12.938Z,5.67
2019-01-29T15:17:05.717Z,5.53
2019-01-29T15:19:40.266Z,5.27
2019-01-29T15:22:07.949Z,5.10
2019-01-29T15:24:36.237Z,4.87
2019-01-29T15:27:06.343Z,4.30
2019-01-29T15:29:33.817Z,4.43
2019-01-29T15:32:01.056Z,4.43
2019-01-29T15:34:30.530Z,4.93
2019-01-29T15:36:58.377Z,6.73
2019-01-29T15:39:30.149Z,5.97
2019-01-29T15:42:04.584Z,5.70
2019-01-29T15:44:33.518Z,6.60
2019-01-29T15:47:00.145Z,6.10
2019-01-29T15:49:28.642Z,4.87
2019-01-29T15:51:58.751Z,4.47
2019-01-29T15:54:25.556Z,5.43
2019-01-29T15:56:54.787Z,5.07
2019-01-29T15:59:21.574Z,4.50
2019-01-29T16:01:48.301Z,4.63
2019-01-29T16:04:15.217Z,5.63
2019-01-29T16:06:41.862Z,4.70
2019-01-29T16:09:08.729Z,4.97
2019-01-29T16:11:35.249Z,4.70
2019-01-29T16:14:01.714Z,5.27
2019-01-29T16:16:28.234Z,5.20
2019-01-29T16:18:58.004Z,4.27
2019-01-29T16:21:27.660Z,4.93
2019-01-29T16:23:54.479Z,4.43
2019-01-29T16:26:21.176Z,4.33
2019-01-29T16:28:47.721Z,4.30
2019-01-29T16:31:14.364Z,4.67
2019-01-29T16:33:40.860Z,3.47
2019-01-29T16:36:07.617Z,3.30
2019-01-29T16:38:34.093Z,4.03
2019-01-29T16:41:02.729Z,2.97
2019-01-29T16:43:29.231Z,3.20
2019-01-29T16:45:57.625Z,2.80
2019-01-29T16:48:24.150Z,3.37
2019-01-29T16:50:50.684Z,2.83
2019-01-29T16:53:17.434Z,3.13
2019-01-29T16:55:44.320Z,2.50
2019-01-29T16:58:10.857Z,2.60
2019-01-29T17:00:38.045Z,2.20
2019-01-29T17:03:07.706Z,2.57
2019-01-29T17:05:36.983Z,2.97
2019-01-29T17:08:06.011Z,2.93
2019-01-29T17:10:36.386Z,2.87
2019-01-29T17:13:06.745Z,2.97
2019-01-29T17:15:35.850Z,3.13
2019-01-29T17:18:05.867Z,2.70
2019-01-29T17:20:37.137Z,2.90
2019-01-29T17:23:06.723Z,3.30
2019-01-29T17:25:35.696Z,3.10
2019-01-29T17:28:04.779Z,2.80
2019-01-29T17:30:41.757Z,3.13
2019-01-29T17:33:09.501Z,2.97
2019-01-29T17:35:37.600Z,3.07
2019-01-29T17:38:07.586Z,2.73
2019-01-29T17:40:36.976Z,3.37
2019-01-29T17:43:07.128Z,2.60
2019-01-29T17:45:39.042Z,2.80
2019-01-29T17:48:06.106Z,2.80
2019-01-29T17:50:37.328Z,2.40
2019-01-29T17:53:05.258Z,2.40
2019-01-29T17:55:36.186Z,2.83
2019-01-29T17:58:05.943Z,2.73
2019-01-29T18:00:35.121Z,2.77
2019-01-29T18:03:05.056Z,2.40
2019-01-29T18:05:35.063Z,3.10
2019-01-29T18:08:01.703Z,2.60
2019-01-29T18:10:28.736Z,3.10
2019-01-29T18:12:58.294Z,2.87
2019-01-29T18:15:26.111Z,2.80
2019-01-29T18:17:54.943Z,2.07
2019-01-29T18:20:21.653Z,2.50
2019-01-29T18:22:48.254Z,2.87
2019-01-29T18:25:18.102Z,2.20
2019-01-29T18:28:00.648Z,2.33
2019-01-29T18:30:21.536Z,2.87
2019-01-29T18:32:50.113Z,2.67
2019-01-29T18:35:17.084Z,2.60
2019-01-29T18:37:46.777Z,2.77
2019-01-29T18:40:35.890Z,2.13
2019-01-29T18:43:05.671Z,3.77
2019-01-29T18:45:43.866Z,2.27
2019-01-29T18:48:19.047Z,1.97
2019-01-29T18:50:45.601Z,2.33
2019-01-29T18:53:15.043Z,1.90
2019-01-29T18:55:44.746Z,2.10
2019-01-29T18:58:17.426Z,2.17
2019-01-29T19:00:54.291Z,2.83
2019-01-29T19:03:26.038Z,2.57
2019-01-29T19:05:53.178Z,2.70
2019-01-29T19:08:20.053Z,2.47
2019-01-29T19:10:46.812Z,3.13
2019-01-29T19:13:15.806Z,4.27
2019-01-29T19:16:00.769Z,3.10
2019-01-29T19:18:45.377Z,2.70
2019-01-29T19:21:15.074Z,2.40
2019-01-29T19:23:41.824Z,2.37
2019-01-29T19:26:08.428Z,2.50
2019-01-29T19:28:35.422Z,1.87
2019-01-29T19:31:04.753Z,2.33
2019-01-29T19:33:30.795Z,2.30
2019-01-29T19:35:57.559Z,2.90
2019-01-29T19:38:24.193Z,3.00
2019-01-29T19:40:50.774Z,2.80
2019-01-29T19:43:17.409Z,2.20
2019-01-29T19:45:44.118Z,2.20
2019-01-29T19:48:10.996Z,2.80
2019-01-29T19:50:37.694Z,2.60
2019-01-29T19:53:04.204Z,2.70
2019-01-29T19:55:30.665Z,3.20
2019-01-29T19:58:08.356Z,2.93
2019-01-29T20:00:34.736Z,3.23
2019-01-29T20:03:01.468Z,3.07
2019-01-29T20:05:28.031Z,3.37
2019-01-29T20:07:54.630Z,3.13
2019-01-29T20:10:21.449Z,3.47
2019-01-29T20:12:48.139Z,3.20
2019-01-29T20:15:15.681Z,3.13
2019-01-29T20:17:42.382Z,3.53
2019-01-29T20:20:12.208Z,3.40
2019-01-29T20:22:39.859Z,3.50
2019-01-29T20:25:06.890Z,3.53
2019-01-29T20:27:33.427Z,3.20
2019-01-29T20:29:59.976Z,3.43
2019-01-29T20:32:26.578Z,3.47
2019-01-29T20:34:53.326Z,3.27
2019-01-29T20:37:19.811Z,3.50
2019-01-29T20:39:46.364Z,3.33
2019-01-29T20:42:12.886Z,4.00
2019-01-29T20:44:39.774Z,3.50
2019-01-29T20:47:06.531Z,4.20
2019-01-29T20:49:33.058Z,3.77
2019-01-29T20:51:59.812Z,4.03
2019-01-29T20:54:26.338Z,4.13
2019-01-29T20:56:52.806Z,3.60
2019-01-29T20:59:19.459Z,4.20
2019-01-29T21:01:48.864Z,5.53
2019-01-29T21:04:16.620Z,4.23
2019-01-29T21:06:43.448Z,5.03
2019-01-29T21:09:09.963Z,4.40
2019-01-29T21:11:36.589Z,4.30
2019-01-29T21:14:03.373Z,4.50
2019-01-29T21:16:29.958Z,4.07
2019-01-29T21:18:56.807Z,4.37
2019-01-29T21:21:23.699Z,4.50
2019-01-29T21:23:50.483Z,4.13
2019-01-29T21:26:17.918Z,4.30
2019-01-29T21:28:44.473Z,4.83
2019-01-29T21:31:11.751Z,3.50
2019-01-29T21:33:38.460Z,5.03
2019-01-29T21:36:05.157Z,4.40
2019-01-29T21:38:32.046Z,4.37
2019-01-29T21:41:02.192Z,4.57
2019-01-29T21:43:29.425Z,4.47
2019-01-29T21:45:56.255Z,4.87
2019-01-29T21:48:22.898Z,4.37
2019-01-29T21:50:49.653Z,4.43
2019-01-29T21:53:17.313Z,4.60
2019-01-29T21:55:44.510Z,4.67
2019-01-29T21:58:11.078Z,4.47
2019-01-29T22:00:43.593Z,4.70
2019-01-29T22:03:11.271Z,5.27
2019-01-29T22:05:37.924Z,5.07
2019-01-29T22:08:06.677Z,5.57
2019-01-29T22:10:41.854Z,4.70
2019-01-29T22:13:09.649Z,5.00
2019-01-29T22:15:36.339Z,4.63
2019-01-29T22:18:05.578Z,4.77
2019-01-29T22:20:35.046Z,4.33
2019-01-29T22:23:03.914Z,4.73
2019-01-29T22:25:30.695Z,5.60
2019-01-29T22:27:57.964Z,5.03
2019-01-29T22:30:27.106Z,4.77
2019-01-29T22:32:55.588Z,5.80
2019-01-29T22:35:25.290Z,5.37
2019-01-29T22:37:53.947Z,4.83
2019-01-29T22:40:23.826Z,5.57
2019-01-29T22:42:50.849Z,4.90
2019-01-29T22:45:17.542Z,5.87
2019-01-29T22:47:53.749Z,5.71
2019-01-29T22:50:28.180Z,6.07
2019-01-29T22:52:55.088Z,6.23
2019-01-29T22:55:25.305Z,5.53
2019-01-29T22:57:55.051Z,5.87
2019-01-29T23:00:33.796Z,5.87
2019-01-29T23:03:00.308Z,5.83
2019-01-29T23:05:26.912Z,5.87
2019-01-29T23:07:53.516Z,5.37
2019-01-29T23:10:20.406Z,5.57
2019-01-29T23:12:47.354Z,6.30
2019-01-29T23:15:15.291Z,6.83
2019-01-29T23:17:41.878Z,6.30
2019-01-29T23:20:09.461Z,5.83
2019-01-29T23:22:35.971Z,5.87
2019-01-29T23:25:07.026Z,6.80
2019-01-29T23:27:33.555Z,6.43
2019-01-29T23:30:00.197Z,6.37
2019-01-29T23:32:26.796Z,7.17
2019-01-29T23:34:53.370Z,5.80
2019-01-29T23:37:19.890Z,7.27
2019-01-29T23:39:53.250Z,6.10
2019-01-29T23:42:19.728Z,7.20
2019-01-29T23:44:46.574Z,5.60
2019-01-29T23:47:13.333Z,6.07
2019-01-29T23:49:39.864Z,6.53
2019-01-29T23:52:06.499Z,6.43
2019-01-29T23:54:33.077Z,6.60
2019-01-29T23:56:59.605Z,6.43
2019-01-29T23:59:26.170Z,6.07
